createdAt,value
2023-03-29T00:02:33.595Z,99031.16
2023-03-29T00:05:04.780Z,99024.56
2023-03-29T00:07:33.618Z,99004.94
2023-03-29T00:10:02.542Z,99015.72
2023-03-29T00:12:31.157Z,99005.78
2023-03-29T00:14:58.226Z,99006.69
2023-03-29T00:17:25.441Z,99010.41
2023-03-29T00:19:52.616Z,98992.78
2023-03-29T00:22:19.859Z,98991.91
2023-03-29T00:24:49.183Z,98992.94
2023-03-29T00:27:16.920Z,99010.75
2023-03-29T00:29:44.018Z,98995.19
2023-03-29T00:32:12.152Z,99006.75
2023-03-29T00:34:42.734Z,98992.22
2023-03-29T00:37:10.023Z,98992.28
2023-03-29T00:39:37.269Z,98987.03
2023-03-29T00:42:04.463Z,98976.38
2023-03-29T00:44:58.293Z,98992.09
2023-03-29T00:47:31.460Z,98985.00
2023-03-29T00:50:04.388Z,98987.66
2023-03-29T00:52:33.419Z,98979.09
2023-03-29T00:55:06.299Z,98992.56
2023-03-29T00:57:34.289Z,98990.53
2023-03-29T01:00:05.012Z,98995.44
2023-03-29T01:02:34.835Z,98989.44
2023-03-29T01:05:16.505Z,98986.09
2023-03-29T01:07:54.996Z,98984.50
2023-03-29T01:10:29.718Z,98975.22
2023-03-29T01:13:02.880Z,98967.97
2023-03-29T01:15:30.804Z,98984.09
2023-03-29T01:17:58.599Z,98976.31
2023-03-29T01:20:31.757Z,98970.59
2023-03-29T01:23:08.500Z,98973.75
2023-03-29T01:26:03.174Z,98973.41
2023-03-29T01:28:39.271Z,98971.38
2023-03-29T01:31:12.140Z,98967.06
2023-03-29T01:33:45.110Z,98946.56
2023-03-29T01:36:19.298Z,98943.94
2023-03-29T01:38:52.682Z,98947.03
2023-03-29T01:41:20.325Z,98941.66
2023-03-29T01:43:59.259Z,98929.06
2023-03-29T01:46:35.640Z,98938.72
2023-03-29T01:49:21.940Z,98936.88
2023-03-29T01:52:17.105Z,98922.88
2023-03-29T01:55:00.751Z,98932.97
2023-03-29T01:57:29.955Z,98920.34
2023-03-29T01:59:58.934Z,98927.81
2023-03-29T02:02:29.743Z,98928.94
2023-03-29T02:04:57.792Z,98917.56
2023-03-29T02:07:37.393Z,98916.56
2023-03-29T02:10:07.785Z,98897.69
2023-03-29T02:12:36.178Z,98894.91
2023-03-29T02:15:07.114Z,98896.72
2023-03-29T02:17:34.654Z,98890.38
2023-03-29T02:20:01.860Z,98890.00
2023-03-29T02:22:42.730Z,98889.66
2023-03-29T02:25:10.249Z,98882.03
2023-03-29T02:27:40.168Z,98902.03
2023-03-29T02:30:09.907Z,98904.59
2023-03-29T02:33:32.961Z,98905.97
2023-03-29T02:36:18.644Z,98900.13
2023-03-29T02:38:46.506Z,98893.91
2023-03-29T02:41:14.057Z,98894.06
2023-03-29T02:43:42.977Z,98893.03
2023-03-29T02:46:11.495Z,98886.84
2023-03-29T02:48:39.061Z,98893.78
2023-03-29T02:51:19.762Z,98871.91
2023-03-29T02:53:54.375Z,98875.78
2023-03-29T02:56:21.600Z,98870.53
2023-03-29T02:58:48.702Z,98884.31
2023-03-29T03:01:18.193Z,98873.81
2023-03-29T03:03:45.389Z,98879.69
2023-03-29T03:06:13.703Z,98871.00
2023-03-29T03:08:40.961Z,98868.94
2023-03-29T03:11:08.589Z,98858.34
2023-03-29T03:13:35.763Z,98868.91
2023-03-29T03:16:03.325Z,98864.66
2023-03-29T03:18:30.667Z,98868.59
2023-03-29T03:20:59.404Z,98869.78
2023-03-29T03:23:27.393Z,98866.03
2023-03-29T03:25:55.366Z,98864.41
2023-03-29T03:28:24.440Z,98864.97
2023-03-29T03:30:51.786Z,98866.31
2023-03-29T03:33:19.507Z,98874.91
2023-03-29T03:36:06.465Z,98876.56
2023-03-29T03:38:38.027Z,98853.00
2023-03-29T03:41:09.710Z,98862.47
2023-03-29T03:43:36.838Z,98868.41
2023-03-29T03:46:04.184Z,98870.22
2023-03-29T03:48:31.762Z,98853.59
2023-03-29T03:51:06.173Z,98862.13
2023-03-29T03:53:35.396Z,98854.34
2023-03-29T03:56:14.776Z,98863.34
2023-03-29T03:59:11.274Z,98838.25
2023-03-29T04:01:58.701Z,98847.44
2023-03-29T04:04:26.569Z,98852.69
2023-03-29T04:07:17.986Z,98835.63
2023-03-29T04:10:17.249Z,98830.72
2023-03-29T04:12:53.783Z,98808.72
2023-03-29T04:15:21.730Z,98831.66
2023-03-29T04:18:00.621Z,98822.19
2023-03-29T04:20:34.239Z,98834.66
2023-03-29T04:23:02.106Z,98816.75
2023-03-29T04:25:29.998Z,98817.59
2023-03-29T04:28:16.295Z,98809.59
2023-03-29T04:30:52.397Z,98823.66
2023-03-29T04:33:51.765Z,98784.47
2023-03-29T04:36:19.762Z,98814.34
2023-03-29T04:38:48.120Z,98792.84
2023-03-29T04:41:16.718Z,98803.63
2023-03-29T04:43:58.398Z,98817.25
2023-03-29T04:46:27.077Z,98821.53
2023-03-29T04:49:12.735Z,98807.47
2023-03-29T04:51:42.578Z,98805.16
2023-03-29T04:54:10.883Z,98822.56
2023-03-29T04:57:01.336Z,98783.50
2023-03-29T04:59:38.629Z,98810.38
2023-03-29T05:02:16.392Z,98814.69
2023-03-29T05:04:47.128Z,98796.00
2023-03-29T05:07:18.265Z,98806.47
2023-03-29T05:09:47.400Z,98798.94
2023-03-29T05:12:14.694Z,98790.06
2023-03-29T05:14:59.750Z,98810.72
2023-03-29T05:17:31.837Z,98806.81
2023-03-29T05:20:10.402Z,98798.09
2023-03-29T05:22:38.524Z,98792.72
2023-03-29T05:25:09.063Z,98802.53
2023-03-29T05:27:36.380Z,98770.22
2023-03-29T05:30:09.269Z,98793.03
2023-03-29T05:32:51.517Z,98808.09
2023-03-29T05:35:25.595Z,98801.84
2023-03-29T05:37:54.038Z,98803.81
2023-03-29T05:40:22.586Z,98799.50
2023-03-29T05:43:14.764Z,98792.47
2023-03-29T05:45:42.115Z,98802.47
2023-03-29T05:48:09.833Z,98813.25
2023-03-29T05:50:40.807Z,98809.00
2023-03-29T05:53:08.169Z,98820.66
2023-03-29T05:55:35.493Z,98794.53
2023-03-29T05:58:02.703Z,98812.25
2023-03-29T06:00:36.932Z,98817.22
2023-03-29T06:03:23.817Z,98808.91
2023-03-29T06:06:04.941Z,98814.25
2023-03-29T06:08:35.128Z,98789.31
2023-03-29T06:11:13.556Z,98781.13
2023-03-29T06:13:59.341Z,98777.59
2023-03-29T06:16:26.730Z,98804.31
2023-03-29T06:18:54.259Z,98800.81
2023-03-29T06:21:22.982Z,98817.34
2023-03-29T06:23:50.507Z,98799.00
2023-03-29T06:26:20.203Z,98807.34
2023-03-29T06:28:51.390Z,98789.28
2023-03-29T06:31:21.147Z,98778.88
2023-03-29T06:33:51.292Z,98793.50
2023-03-29T06:36:47.643Z,98785.13
2023-03-29T06:39:15.768Z,98785.97
2023-03-29T06:42:21.113Z,98798.31
2023-03-29T06:45:17.878Z,98791.63
2023-03-29T06:47:48.476Z,98792.41
2023-03-29T06:50:17.435Z,98784.22
2023-03-29T06:53:04.826Z,98784.72
2023-03-29T06:55:32.861Z,98789.53
2023-03-29T06:58:11.203Z,98789.94
2023-03-29T07:00:39.513Z,98773.09
2023-03-29T07:03:20.681Z,98781.84
2023-03-29T07:05:52.315Z,98790.31
2023-03-29T07:08:22.612Z,98769.88
2023-03-29T07:10:59.403Z,98778.53
2023-03-29T07:13:46.329Z,98800.97
2023-03-29T07:16:19.376Z,98796.41
2023-03-29T07:19:11.599Z,98794.38
2023-03-29T07:21:58.087Z,98779.78
2023-03-29T07:24:36.469Z,98787.53
2023-03-29T07:27:04.706Z,98770.13
2023-03-29T07:29:33.219Z,98793.00
2023-03-29T07:32:00.393Z,98785.06
2023-03-29T07:34:53.626Z,98785.97
2023-03-29T07:37:30.893Z,98772.47
2023-03-29T07:40:00.678Z,98800.06
2023-03-29T07:42:53.959Z,98785.50
2023-03-29T07:45:26.867Z,98787.19
2023-03-29T07:48:01.409Z,98781.13
2023-03-29T07:50:40.434Z,98788.41
2023-03-29T07:53:09.171Z,98761.91
2023-03-29T07:55:36.561Z,98785.53
2023-03-29T07:58:17.537Z,98768.88
2023-03-29T08:00:44.756Z,98778.72
2023-03-29T08:03:31.834Z,98781.56
2023-03-29T08:06:02.527Z,98786.81
2023-03-29T08:08:29.696Z,98789.66
2023-03-29T08:11:01.668Z,98790.84
2023-03-29T08:13:44.492Z,98776.56
2023-03-29T08:16:32.112Z,98779.25
2023-03-29T08:19:05.620Z,98790.13
2023-03-29T08:22:02.054Z,98786.84
2023-03-29T08:24:38.762Z,98789.41
2023-03-29T08:27:08.039Z,98785.31
2023-03-29T08:29:35.343Z,98774.97
2023-03-29T08:32:02.969Z,98768.13
2023-03-29T08:34:31.871Z,98768.13
2023-03-29T08:37:16.494Z,98780.78
2023-03-29T08:39:47.150Z,98780.88
2023-03-29T08:42:55.593Z,98771.56
2023-03-29T08:45:44.951Z,98759.34
2023-03-29T08:48:17.077Z,98763.88
2023-03-29T08:50:49.526Z,98754.31
2023-03-29T08:53:28.335Z,98758.88
2023-03-29T08:56:33.558Z,98742.53
2023-03-29T08:59:30.480Z,98748.22
2023-03-29T09:02:02.408Z,98753.16
2023-03-29T09:04:39.091Z,98769.28
2023-03-29T09:07:30.090Z,98755.94
2023-03-29T09:09:57.568Z,98752.44
2023-03-29T09:13:03.469Z,98756.84
2023-03-29T09:15:40.489Z,98735.41
2023-03-29T09:18:32.380Z,98754.72
2023-03-29T09:21:10.499Z,98751.00
2023-03-29T09:24:13.719Z,98737.47
2023-03-29T09:27:33.154Z,98753.31
2023-03-29T09:30:26.042Z,98755.44
2023-03-29T09:33:12.726Z,98756.59
2023-03-29T09:36:08.609Z,98757.94
2023-03-29T09:38:40.588Z,98758.88
2023-03-29T09:41:41.278Z,98764.50
2023-03-29T09:44:30.221Z,98770.31
2023-03-29T09:47:09.161Z,98768.88
2023-03-29T09:49:47.226Z,98763.25
2023-03-29T09:52:17.386Z,98763.59
2023-03-29T09:54:53.040Z,98768.06
2023-03-29T09:57:20.846Z,98765.50
2023-03-29T09:59:51.020Z,98740.28
2023-03-29T10:02:21.245Z,98752.50
2023-03-29T10:04:55.981Z,98747.31
2023-03-29T10:07:23.639Z,98766.81
2023-03-29T10:09:56.546Z,98755.53
2023-03-29T10:12:25.013Z,98770.16
2023-03-29T10:14:54.418Z,98772.06
2023-03-29T10:17:24.635Z,98767.22
2023-03-29T10:20:04.011Z,98750.19
2023-03-29T10:22:41.682Z,98761.00
2023-03-29T10:25:18.584Z,98755.31
2023-03-29T10:27:47.973Z,98757.13
2023-03-29T10:30:21.774Z,98748.63
2023-03-29T10:32:58.108Z,98734.53
2023-03-29T10:35:40.370Z,98766.81
2023-03-29T10:38:13.478Z,98755.72
2023-03-29T10:40:47.491Z,98760.78
2023-03-29T10:43:26.744Z,98730.06
2023-03-29T10:45:57.383Z,98753.63
2023-03-29T10:48:28.671Z,98744.44
2023-03-29T10:51:00.131Z,98749.31
2023-03-29T10:53:31.251Z,98736.63
2023-03-29T10:56:16.319Z,98744.72
2023-03-29T10:58:46.333Z,98745.97
2023-03-29T11:01:22.916Z,98744.72
2023-03-29T11:03:59.025Z,98746.81
2023-03-29T11:06:39.850Z,98729.25
2023-03-29T11:09:19.266Z,98732.84
2023-03-29T11:12:18.954Z,98747.56
2023-03-29T11:15:03.368Z,98726.53
2023-03-29T11:17:40.148Z,98749.97
2023-03-29T11:20:46.335Z,98723.47
2023-03-29T11:23:41.631Z,98745.00
2023-03-29T11:26:27.210Z,98703.03
2023-03-29T11:29:16.239Z,98734.31
2023-03-29T11:32:04.529Z,98701.53
2023-03-29T11:34:50.127Z,98707.28
2023-03-29T11:37:31.118Z,98743.47
2023-03-29T11:40:13.816Z,98750.03
2023-03-29T11:42:46.029Z,98741.25
2023-03-29T11:45:20.867Z,98707.69
2023-03-29T11:47:50.916Z,98732.34
2023-03-29T11:50:26.377Z,98757.41
2023-03-29T11:52:59.335Z,98766.00
2023-03-29T11:55:33.684Z,98761.72
2023-03-29T11:58:22.469Z,98760.41
2023-03-29T12:00:55.879Z,98739.44
2023-03-29T12:03:29.287Z,98748.25
2023-03-29T12:06:06.603Z,98744.44
2023-03-29T12:08:46.212Z,98769.28
2023-03-29T12:11:23.005Z,98773.50
2023-03-29T12:14:06.692Z,98768.63
2023-03-29T12:16:57.427Z,98754.00
2023-03-29T12:19:38.649Z,98766.16
2023-03-29T12:22:09.558Z,98736.59
2023-03-29T12:24:44.285Z,98761.59
2023-03-29T12:27:39.885Z,98756.00
2023-03-29T12:30:38.543Z,98770.88
2023-03-29T12:33:24.004Z,98757.06
2023-03-29T12:36:12.320Z,98769.88
2023-03-29T12:39:05.858Z,98761.72
2023-03-29T12:42:17.142Z,98771.13
2023-03-29T12:45:19.837Z,98775.13
2023-03-29T12:47:49.115Z,98768.28
2023-03-29T12:50:37.005Z,98783.09
2023-03-29T12:53:26.788Z,98780.13
2023-03-29T12:56:03.938Z,98786.78
2023-03-29T12:58:49.026Z,98788.16
2023-03-29T13:01:32.227Z,98781.94
2023-03-29T13:04:03.304Z,98789.28
2023-03-29T13:06:48.779Z,98784.72
2023-03-29T13:09:32.412Z,98768.50
2023-03-29T13:12:08.024Z,98765.81
2023-03-29T13:14:40.863Z,98790.59
2023-03-29T13:17:18.738Z,98793.78
2023-03-29T13:20:04.639Z,98793.03
2023-03-29T13:23:06.225Z,98796.81
2023-03-29T13:26:16.994Z,98798.84
2023-03-29T13:28:57.958Z,98804.84
2023-03-29T13:31:25.858Z,98788.25
2023-03-29T13:34:27.149Z,98799.88
2023-03-29T13:37:01.613Z,98802.16
2023-03-29T13:39:32.082Z,98818.06
2023-03-29T13:42:19.895Z,98816.06
2023-03-29T13:44:49.321Z,98811.94
2023-03-29T13:47:19.428Z,98813.94
2023-03-29T13:49:53.644Z,98827.69
2023-03-29T13:52:34.589Z,98829.19
2023-03-29T13:55:11.905Z,98825.69
2023-03-29T13:57:42.475Z,98820.22
2023-03-29T14:00:18.186Z,98825.84
2023-03-29T14:02:50.421Z,98831.78
2023-03-29T14:05:25.541Z,98828.81
2023-03-29T14:07:54.509Z,98829.34
2023-03-29T14:10:28.056Z,98834.78
2023-03-29T14:12:56.973Z,98837.47
2023-03-29T14:15:27.864Z,98823.66
2023-03-29T14:17:57.166Z,98835.22
2023-03-29T14:20:26.297Z,98837.00
2023-03-29T14:22:53.701Z,98841.66
2023-03-29T14:25:23.084Z,98841.25
2023-03-29T14:27:50.319Z,98838.25
2023-03-29T14:30:23.908Z,98845.69
2023-03-29T14:32:52.535Z,98852.38
2023-03-29T14:35:20.983Z,98845.41
2023-03-29T14:37:49.157Z,98840.75
2023-03-29T14:40:19.796Z,98842.00
2023-03-29T14:42:48.690Z,98854.88
2023-03-29T14:45:18.005Z,98857.63
2023-03-29T14:47:47.432Z,98853.25
2023-03-29T14:50:27.548Z,98867.28
2023-03-29T14:52:57.842Z,98867.59
2023-03-29T14:55:25.257Z,98864.00
2023-03-29T14:57:55.078Z,98881.06
2023-03-29T15:00:44.374Z,98867.88
2023-03-29T15:03:16.417Z,98886.00
2023-03-29T15:05:57.641Z,98875.41
2023-03-29T15:08:37.900Z,98866.28
2023-03-29T15:11:16.063Z,98874.84
2023-03-29T15:13:44.327Z,98881.84
2023-03-29T15:16:15.102Z,98882.13
2023-03-29T15:18:43.189Z,98890.78
2023-03-29T15:21:15.086Z,98880.69
2023-03-29T15:23:53.185Z,98890.09
2023-03-29T15:26:27.013Z,98890.94
2023-03-29T15:29:10.960Z,98890.88
2023-03-29T15:31:41.415Z,98891.75
2023-03-29T15:34:25.158Z,98896.47
2023-03-29T15:36:52.601Z,98902.63
2023-03-29T15:39:20.897Z,98907.59
2023-03-29T15:41:50.875Z,98913.25
2023-03-29T15:44:22.381Z,98913.34
2023-03-29T15:46:49.553Z,98906.69
2023-03-29T15:49:16.774Z,98918.84
2023-03-29T15:51:43.995Z,98910.78
2023-03-29T15:54:11.157Z,98920.47
2023-03-29T15:56:48.062Z,98918.84
2023-03-29T15:59:15.269Z,98925.97
2023-03-29T16:01:42.546Z,98918.25
2023-03-29T16:04:16.239Z,98924.09
2023-03-29T16:06:44.941Z,98923.97
2023-03-29T16:09:12.169Z,98930.06
2023-03-29T16:11:41.390Z,98940.59
2023-03-29T16:14:30.539Z,98942.88
2023-03-29T16:17:00.183Z,98932.75
2023-03-29T16:19:28.681Z,98940.00
2023-03-29T16:21:56.861Z,98948.22
2023-03-29T16:24:26.384Z,98950.69
2023-03-29T16:26:55.961Z,98945.84
2023-03-29T16:29:24.872Z,98950.78
2023-03-29T16:31:53.063Z,98953.69
2023-03-29T16:34:21.201Z,98954.63
2023-03-29T16:36:49.432Z,98957.56
2023-03-29T16:39:18.396Z,98964.16
2023-03-29T16:41:48.540Z,98965.94
2023-03-29T16:44:19.440Z,98958.97
2023-03-29T16:46:48.109Z,98969.03
2023-03-29T16:49:18.849Z,98968.69
2023-03-29T16:51:47.295Z,98958.63
2023-03-29T16:54:33.216Z,98955.22
2023-03-29T16:57:00.414Z,98963.78
2023-03-29T16:59:27.573Z,98964.16
2023-03-29T17:01:54.742Z,98966.19
2023-03-29T17:04:21.904Z,98974.09
2023-03-29T17:06:49.142Z,98953.41
2023-03-29T17:09:17.734Z,98972.16
2023-03-29T17:11:45.321Z,98980.28
2023-03-29T17:14:12.480Z,98965.53
2023-03-29T17:16:39.619Z,98978.69
2023-03-29T17:19:06.814Z,98970.38
2023-03-29T17:21:34.003Z,98967.94
2023-03-29T17:24:01.086Z,98977.47
2023-03-29T17:26:28.608Z,98965.91
2023-03-29T17:28:55.822Z,98978.34
2023-03-29T17:31:23.086Z,98963.81
2023-03-29T17:33:52.269Z,98977.75
2023-03-29T17:36:24.044Z,98977.09
2023-03-29T17:38:51.829Z,98974.69
2023-03-29T17:41:20.173Z,98978.09
2023-03-29T17:43:48.099Z,98976.09
2023-03-29T17:46:16.633Z,98979.50
2023-03-29T17:48:43.857Z,98971.47
2023-03-29T17:51:11.148Z,98972.41
2023-03-29T17:53:38.325Z,98992.88
2023-03-29T17:56:06.680Z,98981.38
2023-03-29T17:58:33.758Z,98985.44
2023-03-29T18:01:07.733Z,98978.13
2023-03-29T18:03:34.897Z,98972.91
2023-03-29T18:06:02.457Z,98963.94
2023-03-29T18:08:30.964Z,98993.53
2023-03-29T18:11:16.157Z,98998.13
2023-03-29T18:13:44.538Z,98995.22
2023-03-29T18:16:12.093Z,99000.97
2023-03-29T18:18:40.585Z,99000.19
2023-03-29T18:21:10.288Z,99006.72
2023-03-29T18:23:39.997Z,99001.38
2023-03-29T18:26:07.591Z,99009.94
2023-03-29T18:28:37.031Z,99005.38
2023-03-29T18:31:05.033Z,98999.31
2023-03-29T18:33:35.444Z,99011.84
2023-03-29T18:36:05.093Z,99009.22
2023-03-29T18:38:35.332Z,99011.63
2023-03-29T18:41:04.113Z,99011.91
2023-03-29T18:43:33.995Z,99008.97
2023-03-29T18:46:02.206Z,99007.34
2023-03-29T18:48:29.942Z,99017.66
2023-03-29T18:50:57.931Z,99022.72
2023-03-29T18:53:25.174Z,99011.53
2023-03-29T18:55:52.354Z,99019.44
2023-03-29T18:58:23.011Z,99022.66
2023-03-29T19:00:50.644Z,99022.63
2023-03-29T19:03:18.375Z,99024.47
2023-03-29T19:05:45.665Z,99008.94
2023-03-29T19:08:12.754Z,99029.63
2023-03-29T19:10:40.021Z,99034.19
2023-03-29T19:13:07.145Z,99031.47
2023-03-29T19:15:34.906Z,99023.41
2023-03-29T19:18:02.184Z,99021.34
2023-03-29T19:20:30.041Z,99036.16
2023-03-29T19:22:57.216Z,99027.28
2023-03-29T19:25:24.365Z,99033.53
2023-03-29T19:27:51.482Z,99030.06
2023-03-29T19:30:20.228Z,99032.53
2023-03-29T19:32:48.364Z,99036.81
2023-03-29T19:35:15.946Z,99037.13
2023-03-29T19:37:43.148Z,99040.38
2023-03-29T19:40:13.706Z,99041.69
2023-03-29T19:42:41.218Z,99040.06
2023-03-29T19:45:09.778Z,99041.41
2023-03-29T19:47:37.269Z,99033.84
2023-03-29T19:50:05.179Z,99026.13
2023-03-29T19:52:32.945Z,99045.31
2023-03-29T19:55:00.187Z,99045.31
2023-03-29T19:57:28.393Z,99018.34
2023-03-29T19:59:55.624Z,99041.16
2023-03-29T20:02:22.988Z,99039.78
2023-03-29T20:04:50.124Z,99048.00
2023-03-29T20:07:17.283Z,99046.84
2023-03-29T20:09:45.276Z,99045.66
2023-03-29T20:12:12.532Z,99051.28
2023-03-29T20:14:40.441Z,99043.59
2023-03-29T20:17:08.051Z,99050.47
2023-03-29T20:19:36.766Z,99032.91
2023-03-29T20:22:04.629Z,99049.94
2023-03-29T20:24:32.740Z,99043.34
2023-03-29T20:26:59.918Z,99046.31
2023-03-29T20:29:27.790Z,99046.03
2023-03-29T20:31:55.024Z,99040.81
2023-03-29T20:34:22.450Z,99047.56
2023-03-29T20:36:49.816Z,99037.19
2023-03-29T20:39:18.919Z,99048.34
2023-03-29T20:41:47.890Z,99038.53
2023-03-29T20:44:17.059Z,99015.53
2023-03-29T20:47:02.281Z,99043.75
2023-03-29T20:49:37.219Z,99041.41
2023-03-29T20:52:17.286Z,99029.25
2023-03-29T20:54:45.726Z,99044.72
2023-03-29T20:57:16.083Z,99042.72
2023-03-29T20:59:43.982Z,99023.88
2023-03-29T21:02:14.818Z,99053.72
2023-03-29T21:04:42.236Z,99048.13
2023-03-29T21:07:09.851Z,99047.28
2023-03-29T21:09:37.044Z,99053.25
2023-03-29T21:12:04.286Z,99062.16
2023-03-29T21:14:33.420Z,99061.16
2023-03-29T21:17:00.679Z,99065.44
2023-03-29T21:19:27.930Z,99059.72
2023-03-29T21:21:55.075Z,99052.69
2023-03-29T21:24:22.396Z,99059.56
2023-03-29T21:26:49.496Z,99055.25
2023-03-29T21:29:16.672Z,99059.56
2023-03-29T21:31:43.924Z,99058.13
2023-03-29T21:34:11.083Z,99056.59
2023-03-29T21:36:38.452Z,99057.31
2023-03-29T21:39:05.872Z,99064.41
2023-03-29T21:41:33.067Z,99060.56
2023-03-29T21:44:00.487Z,99069.78
2023-03-29T21:46:27.643Z,99063.66
2023-03-29T21:48:54.750Z,99056.75
2023-03-29T21:51:22.032Z,99055.22
2023-03-29T21:53:49.147Z,99060.31
2023-03-29T21:56:16.280Z,99061.94
2023-03-29T21:58:43.475Z,99068.84
2023-03-29T22:01:11.035Z,99060.91
2023-03-29T22:03:38.643Z,99061.78
2023-03-29T22:06:11.116Z,99061.63
2023-03-29T22:08:39.039Z,99065.72
2023-03-29T22:11:09.130Z,99061.66
2023-03-29T22:13:37.442Z,99063.50
2023-03-29T22:16:05.798Z,99064.84
2023-03-29T22:18:46.985Z,99059.53
2023-03-29T22:21:23.734Z,99062.25
2023-03-29T22:23:55.995Z,99068.16
2023-03-29T22:26:27.641Z,99067.94
2023-03-29T22:28:54.870Z,99061.97
2023-03-29T22:31:23.676Z,99061.31
2023-03-29T22:33:51.036Z,99062.81
2023-03-29T22:36:25.764Z,99059.66
2023-03-29T22:38:53.953Z,99065.09
2023-03-29T22:41:26.190Z,99072.38
2023-03-29T22:43:54.961Z,99076.09
2023-03-29T22:46:22.539Z,99065.91
2023-03-29T22:48:50.333Z,99052.41
2023-03-29T22:51:17.538Z,99059.72
2023-03-29T22:53:47.049Z,99061.31
2023-03-29T22:56:15.884Z,99057.19
2023-03-29T22:58:43.611Z,99064.59
2023-03-29T23:01:10.920Z,99038.63
2023-03-29T23:03:38.105Z,99054.00
2023-03-29T23:06:05.501Z,99058.31
2023-03-29T23:08:34.338Z,99050.19
2023-03-29T23:11:02.365Z,99058.59
2023-03-29T23:13:30.420Z,99045.66
2023-03-29T23:15:59.933Z,99050.56
2023-03-29T23:18:29.652Z,99048.91
2023-03-29T23:20:58.369Z,99047.59
2023-03-29T23:23:26.981Z,99047.59
2023-03-29T23:25:55.929Z,99054.63
2023-03-29T23:28:27.543Z,99055.59
2023-03-29T23:30:57.039Z,99050.78
2023-03-29T23:33:25.894Z,99049.72
2023-03-29T23:35:54.377Z,99047.03
2023-03-29T23:38:22.007Z,99047.66
2023-03-29T23:40:59.076Z,99049.56
2023-03-29T23:43:31.909Z,99055.31
2023-03-29T23:46:01.165Z,99047.72
2023-03-29T23:48:28.598Z,99054.63
2023-03-29T23:50:59.017Z,99051.34
2023-03-29T23:53:28.870Z,99049.34
2023-03-29T23:56:00.589Z,99048.69
2023-03-29T23:58:29.006Z,99053.59
